Time;durP1;ratioP1;P1;durP2;ratioP2;P2;SDS_P1;SDS_P2;PMS_P1;PMS_P2;Temp;Humidity;BMP_temperature;BMP_pressure;BME280_temperature;BME280_humidity;BME280_pressure;Samples;Min_cycle;Max_cycle;Signal;HPM_P1;HPM_P2
2022/08/20 00:00:56;;;;;;;3.40;3.10;;;;;;;18.36;98.77;99613.27;1654775;86;21117;-74
2022/08/20 00:03:27;;;;;;;2.87;2.67;;;;;;;18.28;98.93;99614.20;1655250;86;21079;-79
2022/08/20 00:06:13;;;;;;;3.15;2.80;;;;;;;18.24;99.23;99615.12;1657596;85;21042;-79
2022/08/20 00:08:39;;;;;;;6.03;3.35;;;;;;;18.16;99.74;99615.27;1658349;86;21094;-78
2022/08/20 00:11:09;;;;;;;4.62;2.98;;;;;;;18.04;100.00;99614.95;1645609;85;21182;-80
2022/08/20 00:13:43;;;;;;;3.75;3.10;;;;;;;17.97;100.00;99613.19;1654141;85;20979;-87
2022/08/20 00:16:10;;;;;;;4.85;3.67;;;;;;;17.94;100.00;99617.85;1650770;86;21016;-78
2022/08/20 00:18:38;;;;;;;3.08;2.77;;;;;;;17.95;100.00;99611.86;1608835;89;21006;-86
2022/08/20 00:21:12;;;;;;;3.65;3.35;;;;;;;17.90;100.00;99621.47;1595012;90;21504;-76
2022/08/20 00:23:40;;;;;;;9.78;3.83;;;;;;;17.87;100.00;99624.25;1604272;88;21810;-78
2022/08/20 00:26:08;;;;;;;3.90;3.52;;;;;;;17.80;100.00;99623.27;1636220;87;21521;-81
2022/08/20 00:28:37;;;;;;;5.55;4.12;;;;;;;17.77;100.00;99623.06;1642394;87;21025;-81
2022/08/20 00:31:05;;;;;;;4.42;4.08;;;;;;;17.76;100.00;99614.64;1623192;87;21044;-75
2022/08/20 00:33:35;;;;;;;6.95;3.92;;;;;;;17.83;100.00;99622.69;1617828;87;21400;-83
2022/08/20 00:36:05;;;;;;;6.33;3.55;;;;;;;17.93;100.00;99624.42;1609502;89;21096;-82
2022/08/20 00:38:33;;;;;;;4.87;3.83;;;;;;;18.03;100.00;99631.05;1608912;89;21011;-80
2022/08/20 00:41:00;;;;;;;6.53;4.55;;;;;;;18.10;100.00;99630.08;1621255;87;21049;-78
2022/08/20 00:43:46;;;;;;;4.47;3.87;;;;;;;18.17;100.00;99634.59;1609699;88;21523;-79
2022/08/20 00:46:23;;;;;;;6.75;4.45;;;;;;;18.21;100.00;99636.96;1591586;89;21105;-79
2022/08/20 00:48:53;;;;;;;4.15;3.75;;;;;;;18.23;100.00;99637.45;1609040;89;21206;-78
2022/08/20 00:51:41;;;;;;;6.35;4.05;;;;;;;18.24;100.00;99632.81;1609172;89;21090;-80
2022/08/20 00:54:16;;;;;;;8.08;3.92;;;;;;;18.24;100.00;99630.09;1610469;88;21054;-78
2022/08/20 00:56:45;;;;;;;4.37;3.98;;;;;;;18.28;99.73;99636.55;1611664;87;21025;-81
2022/08/20 00:59:16;;;;;;;9.60;4.90;;;;;;;18.23;99.28;99642.89;1593853;89;20979;-83
2022/08/20 01:01:43;;;;;;;7.28;4.05;;;;;;;18.24;99.26;99643.70;1611366;89;22259;-81
2022/08/20 01:04:10;;;;;;;4.70;4.20;;;;;;;18.25;98.94;99636.61;1609103;89;21020;-75
2022/08/20 01:06:38;;;;;;;4.05;3.65;;;;;;;18.24;98.62;99632.81;1608969;89;21568;-75
2022/08/20 01:09:05;;;;;;;8.60;5.83;;;;;;;18.24;98.36;99635.53;1610353;87;21090;-76
2022/08/20 01:11:32;;;;;;;4.78;4.22;;;;;;;18.19;98.21;99643.80;1610315;88;21603;-76
2022/08/20 01:14:01;;;;;;;6.65;3.90;;;;;;;18.15;98.30;99642.23;1618391;88;21185;-80
2022/08/20 01:16:30;;;;;;;4.35;3.80;;;;;;;18.12;98.22;99632.52;1623113;88;21585;-84
2022/08/20 01:18:59;;;;;;;8.33;3.77;;;;;;;18.06;98.23;99639.96;1633444;86;21068;-78
2022/08/20 01:21:32;;;;;;;6.75;4.17;;;;;;;18.00;98.39;99642.52;1620359;88;21137;-76
2022/08/20 01:24:14;;;;;;;6.20;4.72;;;;;;;17.86;98.91;99640.32;1604745;89;21120;-79
2022/08/20 01:26:43;;;;;;;7.53;4.33;;;;;;;17.78;99.72;99640.47;1586351;89;22084;-78
2022/08/20 01:29:14;;;;;;;5.25;4.40;;;;;;;17.67;100.00;99634.93;1608345;89;21605;-74
2022/08/20 01:31:41;;;;;;;6.55;4.95;;;;;;;17.60;100.00;99633.13;1658342;86;21552;-77
2022/08/20 01:34:13;;;;;;;4.62;4.10;;;;;;;17.50;100.00;99632.48;1659425;85;21132;-78
2022/08/20 01:36:47;;;;;;;7.67;4.50;;;;;;;17.46;100.00;99630.89;1658972;86;21113;-76
2022/08/20 01:39:28;;;;;;;6.67;4.60;;;;;;;17.43;100.00;99627.41;1657037;86;21400;-80
2022/08/20 01:42:29;;;;;;;5.28;4.83;;;;;;;17.39;100.00;99619.05;1659497;86;21491;-78
2022/08/20 01:44:57;;;;;;;5.47;4.97;;;;;;;17.31;100.00;99619.70;1660722;86;20905;-82
2022/08/20 01:47:32;;;;;;;5.03;4.58;;;;;;;17.29;100.00;99608.88;1667081;85;21087;-80
2022/08/20 01:50:07;;;;;;;4.87;4.42;;;;;;;17.28;100.00;99598.55;1679123;85;21123;-78
2022/08/20 01:52:42;;;;;;;6.00;4.30;;;;;;;17.31;100.00;99597.17;1615666;87;21027;-78
2022/08/20 01:55:09;;;;;;;4.50;4.10;;;;;;;17.38;100.00;99594.86;1636798;86;21933;-78
2022/08/20 01:57:38;;;;;;;4.80;4.30;;;;;;;17.35;100.00;99594.92;1655502;86;20937;-80
2022/08/20 02:00:08;;;;;;;4.58;4.17;;;;;;;17.36;100.00;99591.66;1656655;86;21130;-81
2022/08/20 02:02:35;;;;;;;22.25;17.70;;;;;;;17.40;100.00;99595.39;1658390;85;21565;-80
2022/08/20 02:05:02;;;;;;;5.83;5.28;;;;;;;17.38;100.00;99597.58;1658739;86;21145;-79
2022/08/20 02:07:31;;;;;;;5.95;5.45;;;;;;;17.25;100.00;99599.70;1624574;86;21031;-81
2022/08/20 02:10:00;;;;;;;9.43;5.08;;;;;;;17.22;100.00;99595.65;1656712;86;21044;-80
2022/08/20 02:12:27;;;;;;;4.47;4.10;;;;;;;17.20;100.00;99596.52;1655192;86;21033;-80
2022/08/20 02:14:55;;;;;;;5.22;3.65;;;;;;;17.18;100.00;99593.27;1644998;86;20890;-79
2022/08/20 02:17:24;;;;;;;3.92;3.47;;;;;;;17.18;100.00;99603.33;1648131;85;21162;-78
2022/08/20 02:19:58;;;;;;;5.70;3.92;;;;;;;17.21;100.00;99606.84;1651772;86;21012;-80
2022/08/20 02:22:51;;;;;;;4.30;3.98;;;;;;;17.21;100.00;99609.55;1644053;86;20996;-80
2022/08/20 02:25:21;;;;;;;6.80;3.25;;;;;;;17.21;100.00;99617.71;1616224;87;21049;-81
2022/08/20 02:27:49;;;;;;;4.30;3.87;;;;;;;17.29;100.00;99615.13;1613392;87;21521;-80
2022/08/20 02:30:19;;;;;;;8.10;4.22;;;;;;;17.37;100.00;99624.51;1642139;87;21112;-84
2022/08/20 02:32:46;;;;;;;3.77;3.47;;;;;;;17.41;100.00;99626.89;1648838;85;21515;-81
2022/08/20 02:35:13;;;;;;;3.85;3.27;;;;;;;17.47;100.00;99624.90;1646565;85;21017;-80
2022/08/20 02:37:42;;;;;;;7.45;6.17;;;;;;;17.50;100.00;99620.25;1646248;87;21098;-81
2022/08/20 02:40:11;;;;;;;5.80;4.05;;;;;;;17.49;100.00;99615.91;1646099;87;21062;-80
2022/08/20 02:42:40;;;;;;;4.42;3.62;;;;;;;17.45;100.00;99617.06;1620740;87;21077;-81
2022/08/20 02:45:10;;;;;;;4.87;3.45;;;;;;;17.49;100.00;99618.08;1650996;86;21055;-81
2022/08/20 02:47:38;;;;;;;5.37;3.42;;;;;;;17.55;100.00;99620.16;1651702;86;21059;-80
2022/08/20 02:50:06;;;;;;;5.08;4.03;;;;;;;17.55;100.00;99616.09;1651557;85;21019;-80
2022/08/20 02:52:33;;;;;;;3.30;3.10;;;;;;;17.54;100.00;99615.83;1651666;86;22133;-81
2022/08/20 02:55:00;;;;;;;6.45;4.50;;;;;;;17.54;100.00;99610.38;1651260;86;21297;-81
2022/08/20 02:57:27;;;;;;;5.12;3.70;;;;;;;17.53;100.00;99608.21;1651585;86;20987;-81
2022/08/20 02:59:55;;;;;;;4.58;4.17;;;;;;;17.56;100.00;99617.12;1605740;86;20972;-81
2022/08/20 03:02:22;;;;;;;8.55;4.20;;;;;;;17.55;100.00;99617.45;1652893;86;21019;-80
2022/08/20 03:04:48;;;;;;;4.35;3.95;;;;;;;17.61;100.00;99619.80;1652893;85;21018;-82
2022/08/20 03:07:15;;;;;;;3.83;3.25;;;;;;;17.70;100.00;99627.52;1648211;87;21134;-81
2022/08/20 03:09:41;;;;;;;4.67;4.20;;;;;;;17.77;100.00;99628.52;1648519;87;20955;-80
2022/08/20 03:12:11;;;;;;;6.15;4.00;;;;;;;17.80;100.00;99626.54;1650394;86;21056;-81
2022/08/20 03:14:39;;;;;;;5.70;3.80;;;;;;;17.79;100.00;99631.17;1647376;86;21044;-81
2022/08/20 03:17:05;;;;;;;4.90;4.50;;;;;;;17.79;100.00;99631.75;1619939;87;21089;-79
2022/08/20 03:19:32;;;;;;;4.03;3.75;;;;;;;17.79;100.00;99632.53;1651063;85;21540;-79
2022/08/20 03:21:59;;;;;;;5.90;4.35;;;;;;;17.73;100.00;99638.38;1651402;86;21119;-79
2022/08/20 03:24:26;;;;;;;5.15;4.60;;;;;;;17.76;100.00;99637.77;1650888;86;21081;-79
2022/08/20 03:26:53;;;;;;;5.58;4.72;;;;;;;17.79;100.00;99645.36;1651350;86;21023;-79
2022/08/20 03:29:19;;;;;;;4.62;4.10;;;;;;;17.85;100.00;99644.14;1651475;86;21055;-78
2022/08/20 03:31:46;;;;;;;4.53;4.12;;;;;;;17.85;100.00;99642.78;1651372;86;21987;-81
2022/08/20 03:34:13;;;;;;;4.92;4.42;;;;;;;17.85;100.00;99637.34;1661822;85;20951;-81
2022/08/20 03:36:39;;;;;;;6.72;3.62;;;;;;;17.83;100.00;99632.77;1651366;86;20995;-81
2022/08/20 03:39:10;;;;;;;5.62;4.85;;;;;;;17.88;100.00;99634.59;1651502;86;21074;-80
2022/08/20 03:41:35;;;;;;;6.15;4.40;;;;;;;17.91;100.00;99631.26;1651436;86;21864;-80
2022/08/20 03:44:03;;;;;;;4.28;3.90;;;;;;;17.99;100.00;99634.09;1650587;86;21187;-82
2022/08/20 03:46:30;;;;;;;4.75;3.87;;;;;;;18.03;100.00;99635.13;1623802;87;21031;-81
2022/08/20 03:48:57;;;;;;;4.65;3.75;;;;;;;18.05;100.00;99627.45;1651407;85;20976;-80
2022/08/20 03:51:24;;;;;;;9.23;4.62;;;;;;;18.06;100.00;99632.34;1651480;86;21038;-81
2022/08/20 03:53:50;;;;;;;5.00;4.60;;;;;;;18.08;100.00;99630.92;1651371;86;21164;-81
2022/08/20 03:56:17;;;;;;;5.28;4.78;;;;;;;18.11;100.00;99624.09;1651715;86;21958;-79
2022/08/20 03:58:45;;;;;;;6.55;5.95;;;;;;;18.17;100.00;99620.98;1651477;86;21019;-80
2022/08/20 04:01:12;;;;;;;6.17;5.58;;;;;;;18.21;100.00;99619.81;1651750;86;21622;-81
2022/08/20 04:03:40;;;;;;;7.92;5.85;;;;;;;18.20;100.00;99613.56;1624093;85;21599;-80
2022/08/20 04:06:07;;;;;;;6.35;5.85;;;;;;;18.20;100.00;99614.11;1651449;86;21168;-79
2022/08/20 04:08:36;;;;;;;7.45;5.37;;;;;;;18.22;100.00;99615.41;1651404;86;21004;-80
2022/08/20 04:11:03;;;;;;;4.80;4.37;;;;;;;18.20;100.00;99610.84;1610530;89;21018;-81
2022/08/20 04:13:31;;;;;;;6.20;4.80;;;;;;;18.20;100.00;99618.20;1609504;88;21685;-80
2022/08/20 04:16:02;;;;;;;6.83;4.60;;;;;;;18.16;100.00;99621.27;1588589;90;21143;-78
2022/08/20 04:18:29;;;;;;;5.83;4.90;;;;;;;18.15;100.00;99627.27;1612876;88;21050;-78
2022/08/20 04:20:56;;;;;;;5.30;4.28;;;;;;;18.20;100.00;99624.45;1614808;88;21784;-80
2022/08/20 04:23:23;;;;;;;6.45;4.72;;;;;;;18.25;100.00;99617.55;1615461;88;21026;-80
2022/08/20 04:25:49;;;;;;;5.10;4.70;;;;;;;18.32;100.00;99620.43;1592462;89;21147;-79
2022/08/20 04:28:28;;;;;;;7.53;4.85;;;;;;;18.36;100.00;99613.27;1605410;89;21091;-79
2022/08/20 04:30:59;;;;;;;6.03;5.25;;;;;;;18.43;100.00;99607.66;1594707;89;21037;-79
2022/08/20 04:33:27;;;;;;;5.55;5.05;;;;;;;18.47;100.00;99608.66;1607361;88;21142;-80
2022/08/20 04:35:54;;;;;;;5.45;4.92;;;;;;;18.52;100.00;99616.72;1582582;89;21148;-78
2022/08/20 04:38:21;;;;;;;5.03;4.53;;;;;;;18.58;100.00;99614.19;1603048;87;21093;-79
2022/08/20 04:40:57;;;;;;;10.28;5.58;;;;;;;18.68;100.00;99608.52;1611439;88;21124;-80
2022/08/20 04:43:33;;;;;;;8.45;6.10;;;;;;;18.79;100.00;99612.40;1615859;87;21153;-80
2022/08/20 04:46:05;;;;;;;8.10;5.75;;;;;;;18.84;100.00;99619.10;1615593;88;21007;-80
2022/08/20 04:48:33;;;;;;;5.80;4.92;;;;;;;18.87;100.00;99619.84;1627815;87;21072;-80
2022/08/20 04:51:01;;;;;;;11.93;5.53;;;;;;;18.87;100.00;99620.65;1635791;87;20968;-81
2022/08/20 04:53:28;;;;;;;6.45;4.90;;;;;;;18.85;100.00;99617.41;1630999;87;21609;-80
2022/08/20 04:55:57;;;;;;;8.65;4.58;;;;;;;18.85;100.00;99613.33;1615490;88;21094;-82
2022/08/20 04:58:36;;;;;;;4.65;4.22;;;;;;;18.79;100.00;99608.31;1584594;89;21686;-83
2022/08/20 05:01:09;;;;;;;5.17;4.67;;;;;;;18.79;100.00;99611.84;1605887;87;21578;-82
2022/08/20 05:03:37;;;;;;;4.78;4.37;;;;;;;18.71;100.00;99604.37;1602932;88;21144;-80
2022/08/20 05:06:07;;;;;;;4.08;3.77;;;;;;;18.66;100.00;99608.56;1588706;89;20982;-82
2022/08/20 05:08:34;;;;;;;4.45;4.05;;;;;;;18.74;100.00;99602.41;1614174;88;21554;-82
2022/08/20 05:11:01;;;;;;;4.60;4.20;;;;;;;18.82;100.00;99598.95;1613944;89;21125;-81
2022/08/20 05:13:28;;;;;;;8.30;4.12;;;;;;;18.88;100.00;99602.38;1613838;88;21773;-83
2022/08/20 05:15:56;;;;;;;3.77;3.52;;;;;;;18.91;100.00;99594.39;1609639;87;21097;-85
2022/08/20 05:18:25;;;;;;;4.50;4.10;;;;;;;18.95;100.00;99599.47;1610772;87;20986;-84
2022/08/20 05:20:52;;;;;;;4.42;4.03;;;;;;;18.99;100.00;99595.59;1625206;87;21035;-85
2022/08/20 05:23:20;;;;;;;6.00;5.58;;;;;;;19.03;100.00;99587.05;1592126;89;21125;-83
2022/08/20 05:25:52;;;;;;;5.75;4.40;;;;;;;19.12;100.00;99584.64;1609025;89;21093;-83
2022/08/20 05:28:23;;;;;;;4.58;3.98;;;;;;;19.18;99.66;99581.80;1590711;89;20992;-84
2022/08/20 05:30:50;;;;;;;6.05;5.47;;;;;;;19.25;99.64;99582.16;1609418;89;21066;-83
2022/08/20 05:33:21;;;;;;;5.30;4.78;;;;;;;19.34;99.26;99572.92;1610127;87;21088;-79
2022/08/20 05:35:51;;;;;;;4.08;3.77;;;;;;;19.44;98.40;99569.98;1609436;88;21132;-82
2022/08/20 05:38:22;;;;;;;4.00;3.40;;;;;;;19.50;97.57;99578.84;1608745;89;21086;-82
2022/08/20 05:40:50;;;;;;;6.00;3.15;;;;;;;19.55;96.56;99580.89;1608487;89;21145;-81
2022/08/20 05:43:17;;;;;;;2.72;2.52;;;;;;;19.55;96.56;99580.89;1608613;89;21078;-82
2022/08/20 05:45:46;;;;;;;4.85;3.33;;;;;;;19.59;96.33;99581.87;1608966;89;21018;-81
2022/08/20 05:48:16;;;;;;;4.78;3.22;;;;;;;19.72;96.07;99579.36;1610007;87;22213;-80
2022/08/20 05:50:44;;;;;;;3.15;2.90;;;;;;;19.85;94.89;99574.39;1641752;87;20993;-79
2022/08/20 05:53:11;;;;;;;7.40;3.52;;;;;;;19.99;93.76;99577.28;1640859;87;21005;-82
2022/08/20 05:55:38;;;;;;;4.05;3.35;;;;;;;20.12;91.47;99579.65;1609523;89;22254;-80
2022/08/20 05:58:17;;;;;;;4.53;2.90;;;;;;;20.12;91.47;99579.65;1609768;89;21094;-81
2022/08/20 06:00:44;;;;;;;4.00;2.90;;;;;;;20.20;91.28;99584.33;1578701;90;21417;-81
2022/08/20 06:05:57;;;;;;;4.30;3.00;;;;;;;20.33;90.16;99580.73;1572362;89;20951;-81
2022/08/20 06:08:24;;;;;;;3.75;2.80;;;;;;;20.38;89.82;99583.88;1583709;90;21021;-82
2022/08/20 06:10:51;;;;;;;3.98;3.62;;;;;;;20.47;89.21;99591.53;1594753;90;21495;-82
2022/08/20 06:13:18;;;;;;;5.40;5.00;;;;;;;20.48;88.36;99584.92;1593168;90;21119;-84
2022/08/20 06:15:45;;;;;;;5.37;3.80;;;;;;;20.53;88.27;99579.90;1628570;87;21586;-82
2022/08/20 06:18:11;;;;;;;5.37;4.87;;;;;;;20.56;87.99;99584.72;1637008;87;20990;-83
2022/08/20 06:20:38;;;;;;;4.90;4.42;;;;;;;20.56;88.08;99589.63;1616368;87;21096;-80
2022/08/20 06:23:05;;;;;;;6.10;4.33;;;;;;;20.60;87.79;99589.78;1638473;87;21052;-84
2022/08/20 06:25:33;;;;;;;9.18;7.97;;;;;;;20.57;87.42;99589.06;1638868;87;21268;-84
2022/08/20 06:28:02;;;;;;;7.58;6.03;;;;;;;20.50;87.58;99586.78;1636794;87;21024;-84
2022/08/20 06:30:28;;;;;;;8.48;6.95;;;;;;;20.41;88.00;99603.72;1638436;87;21498;-79
2022/08/20 06:32:57;;;;;;;8.93;5.95;;;;;;;20.41;88.28;99599.63;1638373;87;21025;-83
2022/08/20 06:35:24;;;;;;;9.43;5.12;;;;;;;20.50;87.92;99601.01;1644937;86;21093;-78
2022/08/20 06:37:51;;;;;;;3.05;2.85;;;;;;;20.61;87.18;99609.16;1698616;84;21293;-77
2022/08/20 06:40:22;;;;;;;5.70;2.62;;;;;;;20.68;85.87;99604.83;1690709;84;20968;-79
2022/08/20 06:42:51;;;;;;;3.90;2.95;;;;;;;20.79;85.14;99590.30;1660934;85;21132;-83
2022/08/20 06:45:25;;;;;;;3.87;2.83;;;;;;;20.91;84.09;99600.03;1643443;85;21037;-79
2022/08/20 06:47:54;;;;;;;4.95;4.47;;;;;;;20.99;83.30;99605.28;1670943;85;21069;-80
2022/08/20 06:50:25;;;;;;;4.72;3.22;;;;;;;21.04;82.61;99605.94;1648376;84;21152;-79
2022/08/20 06:52:52;;;;;;;2.85;2.65;;;;;;;21.09;82.08;99603.60;1646558;86;21042;-80
2022/08/20 06:55:19;;;;;;;7.35;2.90;;;;;;;21.12;81.88;99607.05;1670600;85;22321;-79
2022/08/20 06:57:47;;;;;;;3.98;3.27;;;;;;;21.19;81.86;99609.59;1670947;85;21499;-81
2022/08/20 07:00:17;;;;;;;3.62;3.30;;;;;;;21.25;81.46;99610.21;1670253;85;22202;-78
2022/08/20 07:02:45;;;;;;;4.08;3.72;;;;;;;21.29;81.03;99601.62;1670680;85;21231;-79
2022/08/20 07:05:12;;;;;;;3.25;2.70;;;;;;;21.30;81.00;99607.31;1666992;84;20977;-79
2022/08/20 07:07:49;;;;;;;3.90;3.60;;;;;;;21.42;80.80;99605.30;1670440;85;21057;-77
2022/08/20 07:10:17;;;;;;;3.22;2.92;;;;;;;21.49;80.19;99606.41;1669321;85;21078;-78
2022/08/20 07:12:45;;;;;;;3.55;3.25;;;;;;;21.50;79.97;99603.92;1670357;85;21056;-83
2022/08/20 07:15:13;;;;;;;3.17;2.87;;;;;;;21.53;79.81;99600.55;1662423;84;21135;-80
2022/08/20 07:17:40;;;;;;;2.75;2.55;;;;;;;21.48;78.63;99595.25;1649905;86;21067;-79
2022/08/20 07:20:09;;;;;;;2.52;2.33;;;;;;;21.41;77.70;99600.95;1650186;87;21615;-82
2022/08/20 07:22:37;;;;;;;2.83;2.37;;;;;;;21.38;78.04;99601.05;1626674;85;21532;-80
2022/08/20 07:25:05;;;;;;;2.33;2.15;;;;;;;21.42;78.21;99598.47;1599488;88;21443;-79
2022/08/20 07:27:32;;;;;;;4.85;2.37;;;;;;;21.53;77.99;99595.64;1594352;87;21184;-80
2022/08/20 07:32:44;;;;;;;1.82;1.72;;;;;;;21.75;75.71;99607.19;1603882;89;21047;-80
2022/08/20 07:35:14;;;;;;;3.77;1.92;;;;;;;21.72;75.66;99601.00;1619326;88;21066;-79
2022/08/20 07:37:45;;;;;;;2.30;2.10;;;;;;;21.74;75.23;99608.31;1619516;88;21609;-79
2022/08/20 07:40:17;;;;;;;2.40;2.27;;;;;;;21.81;75.27;99605.64;1619536;88;21621;-78
2022/08/20 07:42:44;;;;;;;5.45;4.12;;;;;;;21.86;75.16;99604.11;1619498;88;21693;-78
2022/08/20 07:45:13;;;;;;;2.47;2.27;;;;;;;21.89;75.26;99602.88;1591843;90;20920;-79
2022/08/20 07:47:42;;;;;;;2.62;2.42;;;;;;;21.93;75.00;99600.28;1593976;90;20970;-78
2022/08/20 07:50:12;;;;;;;2.45;2.20;;;;;;;21.95;74.33;99592.59;1610410;88;21121;-82
2022/08/20 07:52:39;;;;;;;2.47;2.27;;;;;;;22.02;73.99;99598.34;1618060;88;21634;-79
2022/08/20 07:55:09;;;;;;;1.98;1.87;;;;;;;22.02;73.07;99596.41;1619750;88;21086;-83
2022/08/20 07:57:37;;;;;;;2.42;2.22;;;;;;;22.03;72.86;99591.18;1619533;88;20979;-81
2022/08/20 08:00:07;;;;;;;2.60;2.12;;;;;;;22.04;71.95;99592.80;1613171;88;21062;-81
2022/08/20 08:02:35;;;;;;;2.33;2.22;;;;;;;22.03;72.40;99591.73;1593901;90;21094;-79
2022/08/20 08:05:03;;;;;;;12.13;9.40;;;;;;;22.09;73.10;99591.81;1614560;88;21090;-82
2022/08/20 08:07:30;;;;;;;4.85;4.45;;;;;;;22.11;73.33;99588.16;1589988;88;21110;-83
2022/08/20 08:09:56;;;;;;;3.95;3.02;;;;;;;22.20;73.28;99584.03;1600435;88;20969;-79
2022/08/20 08:12:23;;;;;;;3.42;3.12;;;;;;;22.32;72.53;99586.86;1593936;89;21578;-83
2022/08/20 08:14:50;;;;;;;2.75;2.55;;;;;;;22.41;72.02;99580.20;1595188;89;21040;-83
2022/08/20 08:17:17;;;;;;;2.40;2.20;;;;;;;22.51;71.22;99577.09;1612592;89;21201;-81
2022/08/20 08:19:47;;;;;;;2.52;2.33;;;;;;;22.60;70.41;99581.95;1613264;87;21060;-83
2022/08/20 08:22:18;;;;;;;3.60;2.37;;;;;;;22.63;70.02;99573.64;1614509;87;21568;-83
2022/08/20 08:24:47;;;;;;;4.53;2.58;;;;;;;22.73;70.59;99568.36;1643220;86;21550;-84
2022/08/20 08:27:17;;;;;;;2.47;2.30;;;;;;;22.80;69.91;99563.14;1667140;85;21564;-84
2022/08/20 08:29:45;;;;;;;2.90;2.65;;;;;;;22.80;69.74;99563.94;1580635;88;21261;-84
2022/08/20 08:32:15;;;;;;;2.20;2.00;;;;;;;22.77;69.92;99566.56;1667593;85;21040;-78
2022/08/20 08:34:46;;;;;;;4.42;1.98;;;;;;;22.79;70.26;99567.02;1666135;86;21095;-80
2022/08/20 08:37:12;;;;;;;2.62;2.42;;;;;;;22.85;69.83;99569.23;1681123;84;20965;-82
2022/08/20 08:39:44;;;;;;;5.35;2.60;;;;;;;22.89;67.87;99569.36;1680985;84;21100;-83
2022/08/20 08:42:34;;;;;;;1.87;1.77;;;;;;;22.88;67.73;99569.12;1647879;85;21401;-82
2022/08/20 08:45:03;;;;;;;3.87;2.30;;;;;;;22.89;68.17;99563.30;1659512;84;21037;-81
2022/08/20 08:47:34;;;;;;;3.10;2.90;;;;;;;22.98;68.16;99569.53;1671003;85;21582;-81
2022/08/20 08:50:04;;;;;;;3.75;2.15;;;;;;;23.05;68.32;99569.00;1670190;85;20979;-81
2022/08/20 08:52:33;;;;;;;4.60;2.62;;;;;;;23.09;67.76;99567.19;1668259;85;21104;-78
2022/08/20 08:55:05;;;;;;;2.20;2.10;;;;;;;23.08;67.42;99566.14;1680005;84;21806;-79
2022/08/20 08:57:33;;;;;;;2.92;2.70;;;;;;;23.09;67.76;99567.19;1670863;85;21522;-78
2022/08/20 09:00:09;;;;;;;3.60;2.47;;;;;;;23.12;67.47;99565.13;1670866;85;21037;-79
2022/08/20 09:02:37;;;;;;;2.42;2.22;;;;;;;23.19;67.51;99559.11;1670786;85;21073;-80
2022/08/20 09:05:14;;;;;;;2.47;2.27;;;;;;;23.21;67.41;99569.20;1629429;84;21565;-80
2022/08/20 09:07:44;;;;;;;6.42;5.20;;;;;;;23.22;67.31;99567.47;1670805;84;21260;-80
2022/08/20 09:10:11;;;;;;;4.83;4.15;;;;;;;23.24;67.58;99563.02;1685424;84;21033;-80
2022/08/20 09:12:38;;;;;;;5.65;3.83;;;;;;;23.24;67.62;99572.06;1670461;84;21117;-80
2022/08/20 09:15:06;;;;;;;4.15;3.75;;;;;;;23.29;67.52;99575.97;1668753;84;21542;-80
2022/08/20 09:17:35;;;;;;;3.10;2.80;;;;;;;23.28;67.27;99581.22;1658377;86;21054;-77
2022/08/20 09:20:04;;;;;;;3.25;2.95;;;;;;;23.28;66.97;99582.59;1658299;86;21832;-81
2022/08/20 09:22:33;;;;;;;4.83;2.90;;;;;;;23.28;67.20;99574.36;1636919;86;20995;-79
2022/08/20 09:25:02;;;;;;;5.03;3.25;;;;;;;23.33;67.31;99576.90;1668068;85;21054;-80
2022/08/20 09:27:30;;;;;;;3.60;3.30;;;;;;;23.40;67.20;99573.62;1636369;86;21050;-78
2022/08/20 09:29:57;;;;;;;3.77;3.12;;;;;;;23.50;67.00;99580.66;1658277;85;21067;-77
2022/08/20 09:32:24;;;;;;;4.45;3.22;;;;;;;23.59;66.36;99577.25;1665787;85;21047;-78
2022/08/20 09:34:57;;;;;;;3.65;3.25;;;;;;;23.60;66.28;99584.33;1663453;85;21005;-79
2022/08/20 09:37:28;;;;;;;2.98;2.77;;;;;;;23.60;66.40;99585.70;1653631;86;20985;-80
2022/08/20 09:39:55;;;;;;;3.22;2.35;;;;;;;23.59;65.19;99590.42;1657382;86;21059;-78
2022/08/20 09:42:28;;;;;;;3.02;2.77;;;;;;;23.59;64.66;99590.98;1657095;85;21049;-78
2022/08/20 09:44:55;;;;;;;3.30;3.08;;;;;;;23.54;64.76;99588.45;1647539;86;21100;-76
2022/08/20 09:47:22;;;;;;;2.90;2.70;;;;;;;23.54;65.76;99584.33;1658811;86;20987;-76
2022/08/20 09:49:51;;;;;;;4.03;3.72;;;;;;;23.56;66.08;99587.52;1658768;86;21114;-78
2022/08/20 09:52:28;;;;;;;3.60;3.05;;;;;;;23.54;66.17;99592.57;1659063;86;21099;-77
2022/08/20 09:55:22;;;;;;;3.98;3.58;;;;;;;23.54;65.94;99587.88;1658633;85;21040;-78
2022/08/20 09:57:49;;;;;;;3.47;3.12;;;;;;;23.54;65.98;99582.95;1665051;85;21890;-77
2022/08/20 10:00:16;;;;;;;4.03;3.67;;;;;;;23.50;65.98;99590.27;1638876;85;21026;-81
2022/08/20 10:02:44;;;;;;;3.92;3.35;;;;;;;23.51;65.70;99588.54;1658454;86;21014;-80
2022/08/20 10:05:13;;;;;;;5.35;2.95;;;;;;;23.54;64.84;99585.70;1658785;86;21000;-80
2022/08/20 10:07:40;;;;;;;3.22;2.92;;;;;;;23.57;64.73;99591.31;1658322;85;21593;-76
2022/08/20 10:10:10;;;;;;;3.05;2.85;;;;;;;23.63;64.98;99581.73;1657387;86;21153;-76
2022/08/20 10:12:40;;;;;;;2.65;2.45;;;;;;;23.71;64.47;99589.64;1666318;85;21053;-77
2022/08/20 10:15:09;;;;;;;4.58;2.00;;;;;;;23.71;63.64;99579.45;1672530;85;21545;-78
2022/08/20 10:17:42;;;;;;;4.65;3.10;;;;;;;23.65;63.87;99583.55;1657032;85;21043;-78
2022/08/20 10:20:11;;;;;;;3.62;2.60;;;;;;;23.68;64.22;99582.09;1657151;86;21038;-77
2022/08/20 10:22:39;;;;;;;2.60;2.40;;;;;;;23.72;64.31;99578.89;1636317;85;21069;-79
2022/08/20 10:25:09;;;;;;;3.58;2.62;;;;;;;23.71;64.52;99585.52;1629655;85;2122710;-82
2022/08/20 10:27:36;;;;;;;7.05;2.50;;;;;;;23.64;64.61;99583.34;1656204;85;21552;-78
2022/08/20 10:30:05;;;;;;;4.50;3.02;;;;;;;23.65;65.00;99586.86;1654482;86;20995;-78
2022/08/20 10:32:32;;;;;;;3.22;2.95;;;;;;;23.68;65.33;99585.64;1659909;85;21598;-78
2022/08/20 10:34:59;;;;;;;7.47;5.05;;;;;;;23.72;65.52;99585.19;1661794;85;21045;-83
2022/08/20 10:37:25;;;;;;;5.37;4.47;;;;;;;23.81;65.63;99591.95;1657533;85;21074;-81
2022/08/20 10:39:53;;;;;;;7.97;5.65;;;;;;;23.83;65.20;99578.69;1658819;86;20999;-76
2022/08/20 10:42:20;;;;;;;11.10;8.25;;;;;;;23.85;65.18;99584.63;1658673;86;20998;-81
2022/08/20 10:44:47;;;;;;;6.72;4.70;;;;;;;23.89;65.08;99582.23;1655574;85;21081;-79
2022/08/20 10:47:25;;;;;;;4.78;4.28;;;;;;;23.98;64.95;99577.23;1628631;86;21577;-75
2022/08/20 10:49:54;;;;;;;9.85;3.52;;;;;;;24.04;64.65;99577.22;1653879;86;21119;-73
2022/08/20 10:52:21;;;;;;;3.25;2.83;;;;;;;24.02;64.86;99577.58;1560877;88;21170;-73
2022/08/20 10:54:48;;;;;;;2.65;2.45;;;;;;;24.09;64.73;99576.99;1666734;85;21094;-75
2022/08/20 10:57:25;;;;;;;5.65;2.72;;;;;;;24.22;64.14;99584.16;1661487;85;21078;-76
2022/08/20 10:59:59;;;;;;;2.52;2.22;;;;;;;24.35;63.51;99580.26;1658449;86;21307;-82
2022/08/20 11:02:26;;;;;;;4.60;1.98;;;;;;;24.46;62.08;99575.88;1658392;86;21021;-75
2022/08/20 11:04:54;;;;;;;2.33;2.12;;;;;;;24.51;61.94;99574.87;1656486;85;21510;-75
2022/08/20 11:07:42;;;;;;;3.27;2.33;;;;;;;24.49;61.78;99571.08;1664164;85;21002;-77
2022/08/20 11:10:09;;;;;;;2.77;2.58;;;;;;;24.48;61.86;99568.67;1667533;85;21171;-75
2022/08/20 11:12:36;;;;;;;3.08;2.85;;;;;;;24.43;61.05;99569.70;1658774;86;21240;-84
2022/08/20 11:15:04;;;;;;;5.95;2.47;;;;;;;24.50;61.67;99572.69;1656267;85;21541;-79
2022/08/20 11:17:33;;;;;;;2.42;2.22;;;;;;;24.62;62.03;99564.98;1654804;86;21585;-84
2022/08/20 11:20:00;;;;;;;5.28;2.75;;;;;;;24.69;61.62;99562.47;1659139;86;21563;-85
2022/08/20 11:22:30;;;;;;;2.95;2.75;;;;;;;24.69;62.02;99556.39;1667153;85;21040;-81
2022/08/20 11:24:59;;;;;;;4.67;3.43;;;;;;;24.66;62.54;99561.19;1640690;86;21315;-82
2022/08/20 11:27:31;;;;;;;5.10;3.25;;;;;;;24.55;63.23;99557.34;1598594;89;20993;-79
2022/08/20 11:29:58;;;;;;;4.67;4.07;;;;;;;24.46;64.12;99558.61;1601498;89;21127;-80
2022/08/20 11:32:25;;;;;;;4.53;3.25;;;;;;;24.39;64.58;99559.17;1631906;88;21054;-88
2022/08/20 11:34:54;;;;;;;10.48;4.47;;;;;;;24.39;64.67;99550.92;1649747;85;21532;-87
2022/08/20 11:37:22;;;;;;;7.37;4.47;;;;;;;24.36;64.71;99547.50;1658444;85;21613;-82
2022/08/20 11:39:49;;;;;;;6.22;3.85;;;;;;;24.32;65.31;99554.23;1657285;85;21145;-81
2022/08/20 11:42:18;;;;;;;7.80;3.70;;;;;;;24.24;65.87;99555.73;1657658;86;21007;-76
2022/08/20 11:44:45;;;;;;;4.90;4.00;;;;;;;24.18;66.02;99559.85;1659695;85;20974;-80